Flight Track Log - Related Links

Times and Time Zones

All times are in EDT time to prevent confusion due to time zone crossing. See the SKW5370 flight status page for this flight to view local times or setup timezone preferences in your user account.

Time Position Orientation Groundspeed Altitude Reporting Facility
EDT Latitude Longitude Course Direction KTS MPH feet Rate Location/Type
Mon 07:44:17 AM 41.9667 -87.9667 14° North 163 188 2,600  Level Chicago TRACON
Mon 07:45:23 AM 41.9500 -88.0667 257° West 218 251 4,800 2,050 Climbing Chicago TRACON
Mon 07:46:00 AM 42.3044 -87.7947 10° North  Level FlightAware Approximate
Mon 07:46:17 AM 42.0000 -88.1167 323° Northwest 293 337 6,700  Level Chicago TRACON
Mon 07:47:00 AM 42.4154 -87.7506 20° North  Level FlightAware Approximate
Mon 07:47:18 AM 42.0833 -88.1000 North 337 388 8,800  Level Chicago TRACON
Mon 07:48:00 AM 42.5302 -87.7289 14° North  Level FlightAware Approximate
Mon 07:48:34 AM 42.1919 -88.0583 16° North 341 392 11,300  Level Chicago Center
Mon 07:49:00 AM 42.6430 -87.6913 14° North  Level FlightAware Approximate
Mon 07:49:36 AM 42.2839 -88.0428 North 362 417 13,000  Level Chicago Center
Mon 07:50:37 AM 42.3958 -88.0469 358° North 375 432 14,900 1,951 Climbing Chicago Center
Mon 07:51:39 AM 42.5022 -88.0569 356° North 382 440 17,000 2,098 Climbing Chicago Center
Mon 07:52:40 AM 42.6067 -88.0633 357° North 377 434 19,200 1,707 Climbing Chicago Center
Mon 07:53:42 AM 42.7281 -88.0506 North 383 441 20,500 1,065 Climbing Chicago Center
Mon 07:54:44 AM 42.7775 -87.9211 62° Northeast 392 451 21,400 1,122 Climbing Chicago Center
Mon 07:55:45 AM 42.8086 -87.7797 73° East 391 450 22,800 1,024 Climbing Chicago Center
Mon 07:56:47 AM 42.8383 -87.6364 74° East 395 455 23,500 732 Climbing Chicago Center
Mon 07:57:48 AM 42.8694 -87.4906 74° East 398 458 24,300 732 Climbing Chicago Center
Mon 07:58:50 AM 42.9028 -87.3381 73° East 409 471 25,000 341 Climbing Chicago Center
Mon 07:59:51 AM 42.9350 -87.1872 74° East 415 478 25,000  Level Chicago Center
Mon 08:00:53 AM 42.9656 -87.0400 74° East 406 467 25,000  Level Chicago Center
Mon 08:01:55 AM 42.9964 -86.8936 74° East 402 463 25,000  Level Chicago Center
Mon 08:02:56 AM 43.0325 -86.7197 74° East 398 458 25,000  Level Chicago Center
Mon 08:03:58 AM 43.0631 -86.5747 74° East 399 459 25,000  Level Chicago Center
Mon 08:05:00 AM 43.0922 -86.4306 74° East 395 455 25,000  Level Chicago Center
Mon 08:06:02 AM 43.1219 -86.2814 75° East 403 464 25,000 -244 Level Chicago Center
Mon 08:07:03 AM 43.1539 -86.1256 74° East 418 481 24,500 -1,024 Descending Chicago Center
Mon 08:08:05 AM 43.1853 -85.9686 75° East 419 482 22,900 -1,500 Descending Chicago Center
Mon 08:09:07 AM 43.2136 -85.8206 75° East 402 463 21,400 -1,512 Descending Chicago Center
Mon 08:10:08 AM 43.2394 -85.6792 76° East 387 445 19,800 -1,512 Descending Chicago Center
Mon 08:11:10 AM 43.2653 -85.5422 75° East 376 433 18,300 -1,452 Descending Chicago Center
Mon 08:12:12 AM 43.2911 -85.4081 75° East 367 422 16,800 -1,537 Descending Chicago Center
Mon 08:12:32 AM 43.3017 -85.3536 75° East 365 420 16,200 -1,575 Descending Cleveland Center
Mon 08:13:32 AM 43.3261 -85.2156 76° East 365 420 14,700 -1,450 Descending Cleveland Center
Mon 08:14:32 AM 43.3503 -85.0803 76° East 365 420 13,300 -1,339 Descending Cleveland Center
Mon 08:15:33 AM 43.3761 -84.9506 75° East 360 414 12,000 -1,400 Descending Cleveland Center
Mon 08:16:32 AM 43.3992 -84.8322 75° East 343 395 10,500 -1,866 Descending Cleveland Center
Mon 08:17:32 AM 43.4178 -84.7219 77° East 313 360 8,300 -2,000 Descending Cleveland Center
Mon 08:18:32 AM 43.4361 -84.6117 77° East 285 328 6,500 -1,750 Descending Cleveland Center
Mon 08:19:32 AM 43.4608 -84.4989 73° East 280 322 4,800 -1,550 Descending Cleveland Center
Mon 08:20:32 AM 43.4956 -84.4008 64° Northeast 280 322 3,400 -1,300 Descending Cleveland Center
Mon 08:21:32 AM 43.5297 -84.3086 63° Northeast 280 322 2,200 -595 Descending Cleveland Center
Mon 08:22:33 AM 43.5611 -84.2417 57° Northeast 250 288 2,200  Level Cleveland Center

Login

Don't have an account? Register now (free) for customized features, flight alerts, and more!